sensor_id;sensor_type;location;lat;lon;timestamp;P1;durP1;ratioP1;P2;durP2;ratioP2
42066;SDS011;27734;47.028;28.820;2023-03-26T00:00:22;34.00;;;18.37;;
42066;SDS011;27734;47.028;28.820;2023-03-26T00:03:13;34.30;;;18.17;;
42066;SDS011;27734;47.028;28.820;2023-03-26T00:05:47;33.15;;;18.17;;
42066;SDS011;27734;47.028;28.820;2023-03-26T00:08:30;34.67;;;18.93;;
42066;SDS011;27734;47.028;28.820;2023-03-26T00:11:02;35.57;;;18.07;;
42066;SDS011;27734;47.028;28.820;2023-03-26T00:13:34;36.30;;;18.60;;
42066;SDS011;27734;47.028;28.820;2023-03-26T00:16:06;33.27;;;19.27;;
42066;SDS011;27734;47.028;28.820;2023-03-26T00:18:39;31.63;;;18.53;;
42066;SDS011;27734;47.028;28.820;2023-03-26T00:21:11;32.85;;;18.30;;
42066;SDS011;27734;47.028;28.820;2023-03-26T00:23:45;35.47;;;19.40;;
42066;SDS011;27734;47.028;28.820;2023-03-26T00:26:17;32.77;;;17.33;;
42066;SDS011;27734;47.028;28.820;2023-03-26T00:28:48;33.87;;;19.30;;
42066;SDS011;27734;47.028;28.820;2023-03-26T00:31:20;36.65;;;19.45;;
42066;SDS011;27734;47.028;28.820;2023-03-26T00:33:51;34.03;;;18.20;;
42066;SDS011;27734;47.028;28.820;2023-03-26T00:36:23;38.43;;;18.97;;
42066;SDS011;27734;47.028;28.820;2023-03-26T00:38:55;38.03;;;19.57;;
42066;SDS011;27734;47.028;28.820;2023-03-26T00:41:26;34.47;;;19.50;;
42066;SDS011;27734;47.028;28.820;2023-03-26T00:43:58;33.60;;;18.60;;
42066;SDS011;27734;47.028;28.820;2023-03-26T00:46:30;36.53;;;20.27;;
42066;SDS011;27734;47.028;28.820;2023-03-26T00:49:01;38.40;;;19.63;;
42066;SDS011;27734;47.028;28.820;2023-03-26T00:51:40;37.47;;;20.97;;
42066;SDS011;27734;47.028;28.820;2023-03-26T00:54:12;35.90;;;20.23;;
42066;SDS011;27734;47.028;28.820;2023-03-26T00:56:43;36.10;;;20.77;;
42066;SDS011;27734;47.028;28.820;2023-03-26T00:59:14;35.63;;;20.03;;
42066;SDS011;27734;47.028;28.820;2023-03-26T01:01:46;35.30;;;19.80;;
42066;SDS011;27734;47.028;28.820;2023-03-26T01:04:22;35.23;;;18.77;;
42066;SDS011;27734;47.028;28.820;2023-03-26T01:06:57;36.37;;;18.90;;
42066;SDS011;27734;47.028;28.820;2023-03-26T01:09:34;34.13;;;19.17;;
42066;SDS011;27734;47.028;28.820;2023-03-26T01:12:12;34.83;;;19.43;;
42066;SDS011;27734;47.028;28.820;2023-03-26T01:14:47;33.27;;;18.50;;
42066;SDS011;27734;47.028;28.820;2023-03-26T01:17:20;35.50;;;20.17;;
42066;SDS011;27734;47.028;28.820;2023-03-26T01:19:53;34.97;;;19.27;;
42066;SDS011;27734;47.028;28.820;2023-03-26T01:22:40;33.27;;;18.33;;
42066;SDS011;27734;47.028;28.820;2023-03-26T01:25:14;35.10;;;19.40;;
42066;SDS011;27734;47.028;28.820;2023-03-26T01:27:45;34.23;;;18.67;;
42066;SDS011;27734;47.028;28.820;2023-03-26T01:30:21;35.80;;;19.03;;
42066;SDS011;27734;47.028;28.820;2023-03-26T01:33:01;34.87;;;19.43;;
42066;SDS011;27734;47.028;28.820;2023-03-26T01:35:42;34.33;;;19.27;;
42066;SDS011;27734;47.028;28.820;2023-03-26T01:38:21;36.20;;;20.40;;
42066;SDS011;27734;47.028;28.820;2023-03-26T01:41:03;36.83;;;19.63;;
42066;SDS011;27734;47.028;28.820;2023-03-26T01:43:40;34.33;;;19.73;;
42066;SDS011;27734;47.028;28.820;2023-03-26T01:49:08;34.43;;;19.63;;
42066;SDS011;27734;47.028;28.820;2023-03-26T01:51:41;34.23;;;19.33;;
42066;SDS011;27734;47.028;28.820;2023-03-26T01:54:13;37.90;;;19.40;;
42066;SDS011;27734;47.028;28.820;2023-03-26T01:56:53;35.07;;;19.70;;
42066;SDS011;27734;47.028;28.820;2023-03-26T01:59:40;35.70;;;19.13;;
42066;SDS011;27734;47.028;28.820;2023-03-26T02:02:25;33.53;;;19.07;;
42066;SDS011;27734;47.028;28.820;2023-03-26T02:05:02;33.60;;;19.33;;
42066;SDS011;27734;47.028;28.820;2023-03-26T02:07:42;34.47;;;19.23;;
42066;SDS011;27734;47.028;28.820;2023-03-26T02:10:19;36.35;;;19.00;;
42066;SDS011;27734;47.028;28.820;2023-03-26T02:12:54;35.33;;;20.17;;
42066;SDS011;27734;47.028;28.820;2023-03-26T02:15:27;34.60;;;18.97;;
42066;SDS011;27734;47.028;28.820;2023-03-26T02:17:58;33.33;;;19.57;;
42066;SDS011;27734;47.028;28.820;2023-03-26T02:20:31;32.73;;;18.80;;
42066;SDS011;27734;47.028;28.820;2023-03-26T02:23:02;37.90;;;19.87;;
42066;SDS011;27734;47.028;28.820;2023-03-26T02:25:34;34.83;;;19.57;;
42066;SDS011;27734;47.028;28.820;2023-03-26T02:28:07;34.23;;;19.02;;
42066;SDS011;27734;47.028;28.820;2023-03-26T02:30:38;33.17;;;18.60;;
42066;SDS011;27734;47.028;28.820;2023-03-26T02:33:10;36.40;;;18.45;;
42066;SDS011;27734;47.028;28.820;2023-03-26T02:35:44;32.50;;;18.80;;
42066;SDS011;27734;47.028;28.820;2023-03-26T02:38:15;36.87;;;19.40;;
42066;SDS011;27734;47.028;28.820;2023-03-26T02:40:47;33.47;;;19.20;;
42066;SDS011;27734;47.028;28.820;2023-03-26T02:43:19;36.37;;;19.63;;
42066;SDS011;27734;47.028;28.820;2023-03-26T02:45:51;37.97;;;19.20;;
42066;SDS011;27734;47.028;28.820;2023-03-26T02:48:49;33.23;;;18.00;;
42066;SDS011;27734;47.028;28.820;2023-03-26T02:51:25;33.73;;;18.20;;
42066;SDS011;27734;47.028;28.820;2023-03-26T02:54:14;34.50;;;18.73;;
42066;SDS011;27734;47.028;28.820;2023-03-26T02:57:14;36.50;;;18.60;;
42066;SDS011;27734;47.028;28.820;2023-03-26T03:00:05;36.10;;;18.70;;
42066;SDS011;27734;47.028;28.820;2023-03-26T03:02:40;34.43;;;19.33;;
42066;SDS011;27734;47.028;28.820;2023-03-26T03:05:38;32.73;;;19.30;;
42066;SDS011;27734;47.028;28.820;2023-03-26T03:08:13;34.93;;;20.40;;
42066;SDS011;27734;47.028;28.820;2023-03-26T03:11:11;36.40;;;19.03;;
42066;SDS011;27734;47.028;28.820;2023-03-26T03:13:49;38.75;;;20.05;;
42066;SDS011;27734;47.028;28.820;2023-03-26T03:16:26;36.90;;;19.63;;
42066;SDS011;27734;47.028;28.820;2023-03-26T03:18:59;39.27;;;22.07;;
42066;SDS011;27734;47.028;28.820;2023-03-26T03:21:40;35.73;;;19.93;;
42066;SDS011;27734;47.028;28.820;2023-03-26T03:24:11;34.60;;;20.40;;
42066;SDS011;27734;47.028;28.820;2023-03-26T03:26:47;37.87;;;20.47;;
42066;SDS011;27734;47.028;28.820;2023-03-26T03:29:45;36.03;;;20.07;;
42066;SDS011;27734;47.028;28.820;2023-03-26T03:32:36;38.63;;;21.03;;
42066;SDS011;27734;47.028;28.820;2023-03-26T03:35:08;35.67;;;19.87;;
42066;SDS011;27734;47.028;28.820;2023-03-26T03:37:40;41.00;;;20.47;;
42066;SDS011;27734;47.028;28.820;2023-03-26T03:40:12;37.67;;;21.43;;
42066;SDS011;27734;47.028;28.820;2023-03-26T03:42:44;38.87;;;21.40;;
42066;SDS011;27734;47.028;28.820;2023-03-26T03:45:19;38.90;;;21.30;;
42066;SDS011;27734;47.028;28.820;2023-03-26T03:47:53;37.90;;;20.97;;
42066;SDS011;27734;47.028;28.820;2023-03-26T03:50:30;41.37;;;22.00;;
42066;SDS011;27734;47.028;28.820;2023-03-26T03:53:20;40.60;;;21.97;;
42066;SDS011;27734;47.028;28.820;2023-03-26T03:55:53;41.33;;;21.30;;
42066;SDS011;27734;47.028;28.820;2023-03-26T03:58:28;38.97;;;21.77;;
42066;SDS011;27734;47.028;28.820;2023-03-26T04:01:06;38.30;;;21.43;;
42066;SDS011;27734;47.028;28.820;2023-03-26T04:03:48;39.90;;;21.93;;
42066;SDS011;27734;47.028;28.820;2023-03-26T04:06:19;39.63;;;21.70;;
42066;SDS011;27734;47.028;28.820;2023-03-26T04:08:53;37.60;;;21.47;;
42066;SDS011;27734;47.028;28.820;2023-03-26T04:11:24;38.83;;;20.80;;
42066;SDS011;27734;47.028;28.820;2023-03-26T04:14:19;40.10;;;22.17;;
42066;SDS011;27734;47.028;28.820;2023-03-26T04:17:01;41.53;;;22.67;;
42066;SDS011;27734;47.028;28.820;2023-03-26T04:19:35;42.10;;;23.02;;
42066;SDS011;27734;47.028;28.820;2023-03-26T04:22:08;38.00;;;22.57;;
42066;SDS011;27734;47.028;28.820;2023-03-26T04:25:00;42.80;;;23.87;;
42066;SDS011;27734;47.028;28.820;2023-03-26T04:27:55;41.00;;;22.83;;
42066;SDS011;27734;47.028;28.820;2023-03-26T04:30:41;40.27;;;23.40;;
42066;SDS011;27734;47.028;28.820;2023-03-26T04:33:25;41.27;;;22.50;;
42066;SDS011;27734;47.028;28.820;2023-03-26T04:35:58;37.77;;;22.30;;
42066;SDS011;27734;47.028;28.820;2023-03-26T04:38:32;38.20;;;22.30;;
42066;SDS011;27734;47.028;28.820;2023-03-26T04:41:09;40.43;;;23.20;;
42066;SDS011;27734;47.028;28.820;2023-03-26T04:44:01;35.60;;;19.97;;
42066;SDS011;27734;47.028;28.820;2023-03-26T04:46:40;39.50;;;22.07;;
42066;SDS011;27734;47.028;28.820;2023-03-26T04:49:22;37.40;;;21.90;;
42066;SDS011;27734;47.028;28.820;2023-03-26T04:51:53;38.20;;;20.27;;
42066;SDS011;27734;47.028;28.820;2023-03-26T04:54:44;32.97;;;19.57;;
42066;SDS011;27734;47.028;28.820;2023-03-26T04:57:18;32.53;;;18.47;;
42066;SDS011;27734;47.028;28.820;2023-03-26T05:00:04;36.20;;;20.03;;
42066;SDS011;27734;47.028;28.820;2023-03-26T05:02:42;32.83;;;19.50;;
42066;SDS011;27734;47.028;28.820;2023-03-26T05:05:17;33.03;;;19.70;;
42066;SDS011;27734;47.028;28.820;2023-03-26T05:07:48;37.13;;;20.10;;
42066;SDS011;27734;47.028;28.820;2023-03-26T05:10:20;33.83;;;19.17;;
42066;SDS011;27734;47.028;28.820;2023-03-26T05:12:56;32.23;;;20.17;;
42066;SDS011;27734;47.028;28.820;2023-03-26T05:15:31;36.00;;;20.83;;
42066;SDS011;27734;47.028;28.820;2023-03-26T05:18:09;32.80;;;18.93;;
42066;SDS011;27734;47.028;28.820;2023-03-26T05:20:43;30.57;;;17.40;;
42066;SDS011;27734;47.028;28.820;2023-03-26T05:23:14;33.73;;;18.17;;
42066;SDS011;27734;47.028;28.820;2023-03-26T05:25:51;32.90;;;18.47;;
42066;SDS011;27734;47.028;28.820;2023-03-26T05:31:18;28.27;;;16.80;;
42066;SDS011;27734;47.028;28.820;2023-03-26T05:33:51;27.83;;;15.67;;
42066;SDS011;27734;47.028;28.820;2023-03-26T05:36:23;29.10;;;17.00;;
42066;SDS011;27734;47.028;28.820;2023-03-26T05:39:08;27.40;;;15.83;;
42066;SDS011;27734;47.028;28.820;2023-03-26T05:41:58;27.30;;;15.80;;
42066;SDS011;27734;47.028;28.820;2023-03-26T05:44:37;26.93;;;14.57;;
42066;SDS011;27734;47.028;28.820;2023-03-26T05:47:15;26.40;;;15.33;;
42066;SDS011;27734;47.028;28.820;2023-03-26T05:49:47;25.20;;;14.07;;
42066;SDS011;27734;47.028;28.820;2023-03-26T05:52:18;23.23;;;13.97;;
42066;SDS011;27734;47.028;28.820;2023-03-26T05:55:08;23.73;;;14.30;;
42066;SDS011;27734;47.028;28.820;2023-03-26T05:57:59;22.97;;;12.67;;
42066;SDS011;27734;47.028;28.820;2023-03-26T06:03:05;22.87;;;13.87;;
42066;SDS011;27734;47.028;28.820;2023-03-26T06:06:05;21.40;;;11.90;;
42066;SDS011;27734;47.028;28.820;2023-03-26T06:08:43;22.70;;;12.83;;
42066;SDS011;27734;47.028;28.820;2023-03-26T06:11:18;22.53;;;12.63;;
42066;SDS011;27734;47.028;28.820;2023-03-26T06:13:49;21.00;;;12.47;;
42066;SDS011;27734;47.028;28.820;2023-03-26T06:16:20;24.27;;;12.13;;
42066;SDS011;27734;47.028;28.820;2023-03-26T06:18:58;19.80;;;11.53;;
42066;SDS011;27734;47.028;28.820;2023-03-26T06:21:29;20.67;;;11.50;;
42066;SDS011;27734;47.028;28.820;2023-03-26T06:24:11;19.07;;;10.83;;
42066;SDS011;27734;47.028;28.820;2023-03-26T06:27:06;21.93;;;11.67;;
42066;SDS011;27734;47.028;28.820;2023-03-26T06:30:13;19.97;;;11.10;;
42066;SDS011;27734;47.028;28.820;2023-03-26T06:32:55;20.90;;;11.13;;
42066;SDS011;27734;47.028;28.820;2023-03-26T06:35:30;20.50;;;10.57;;
42066;SDS011;27734;47.028;28.820;2023-03-26T06:38:02;19.17;;;10.40;;
42066;SDS011;27734;47.028;28.820;2023-03-26T06:40:35;19.70;;;10.03;;
42066;SDS011;27734;47.028;28.820;2023-03-26T06:43:19;17.83;;;9.70;;
42066;SDS011;27734;47.028;28.820;2023-03-26T06:46:09;16.73;;;8.73;;
42066;SDS011;27734;47.028;28.820;2023-03-26T06:48:41;18.43;;;10.00;;
42066;SDS011;27734;47.028;28.820;2023-03-26T06:51:35;16.80;;;8.20;;
42066;SDS011;27734;47.028;28.820;2023-03-26T06:54:17;16.27;;;7.83;;
42066;SDS011;27734;47.028;28.820;2023-03-26T06:56:48;15.70;;;7.90;;
42066;SDS011;27734;47.028;28.820;2023-03-26T06:59:39;14.73;;;7.30;;
42066;SDS011;27734;47.028;28.820;2023-03-26T07:02:29;13.60;;;6.53;;
42066;SDS011;27734;47.028;28.820;2023-03-26T07:05:19;12.97;;;6.60;;
42066;SDS011;27734;47.028;28.820;2023-03-26T07:08:09;12.93;;;6.63;;
42066;SDS011;27734;47.028;28.820;2023-03-26T07:10:59;12.03;;;6.40;;
42066;SDS011;27734;47.028;28.820;2023-03-26T07:16:22;11.00;;;5.70;;
42066;SDS011;27734;47.028;28.820;2023-03-26T07:19:09;11.27;;;5.67;;
42066;SDS011;27734;47.028;28.820;2023-03-26T07:21:42;9.63;;;5.27;;
42066;SDS011;27734;47.028;28.820;2023-03-26T07:24:34;13.10;;;5.60;;
42066;SDS011;27734;47.028;28.820;2023-03-26T07:27:15;9.77;;;5.17;;
42066;SDS011;27734;47.028;28.820;2023-03-26T07:29:53;10.87;;;4.97;;
42066;SDS011;27734;47.028;28.820;2023-03-26T07:33:00;10.20;;;5.33;;
42066;SDS011;27734;47.028;28.820;2023-03-26T07:35:56;11.27;;;5.20;;
42066;SDS011;27734;47.028;28.820;2023-03-26T07:39:10;12.77;;;5.23;;
42066;SDS011;27734;47.028;28.820;2023-03-26T07:42:24;12.67;;;5.47;;
42066;SDS011;27734;47.028;28.820;2023-03-26T07:45:26;12.07;;;4.97;;
42066;SDS011;27734;47.028;28.820;2023-03-26T07:48:25;10.03;;;5.10;;
42066;SDS011;27734;47.028;28.820;2023-03-26T07:51:13;9.17;;;4.50;;
42066;SDS011;27734;47.028;28.820;2023-03-26T07:54:05;11.93;;;5.00;;
42066;SDS011;27734;47.028;28.820;2023-03-26T07:56:47;9.13;;;5.00;;
42066;SDS011;27734;47.028;28.820;2023-03-26T07:59:37;8.47;;;4.60;;
42066;SDS011;27734;47.028;28.820;2023-03-26T08:06:04;9.97;;;4.90;;
42066;SDS011;27734;47.028;28.820;2023-03-26T08:08:59;10.93;;;5.47;;
42066;SDS011;27734;47.028;28.820;2023-03-26T08:11:39;9.93;;;5.13;;
42066;SDS011;27734;47.028;28.820;2023-03-26T08:14:26;7.97;;;4.50;;
42066;SDS011;27734;47.028;28.820;2023-03-26T08:17:10;7.87;;;4.80;;
42066;SDS011;27734;47.028;28.820;2023-03-26T08:19:49;9.30;;;4.73;;
42066;SDS011;27734;47.028;28.820;2023-03-26T08:22:30;8.70;;;4.90;;
42066;SDS011;27734;47.028;28.820;2023-03-26T08:25:16;10.70;;;5.00;;
42066;SDS011;27734;47.028;28.820;2023-03-26T08:27:58;11.50;;;5.20;;
42066;SDS011;27734;47.028;28.820;2023-03-26T08:30:37;10.77;;;5.00;;
42066;SDS011;27734;47.028;28.820;2023-03-26T08:33:13;9.87;;;5.20;;
42066;SDS011;27734;47.028;28.820;2023-03-26T08:35:47;12.00;;;5.00;;
42066;SDS011;27734;47.028;28.820;2023-03-26T08:38:19;9.97;;;5.27;;
42066;SDS011;27734;47.028;28.820;2023-03-26T08:44:14;10.57;;;5.47;;
42066;SDS011;27734;47.028;28.820;2023-03-26T08:50:28;10.00;;;5.00;;
42066;SDS011;27734;47.028;28.820;2023-03-26T08:56:37;11.00;;;5.00;;
42066;SDS011;27734;47.028;28.820;2023-03-26T09:02:31;9.77;;;5.10;;
42066;SDS011;27734;47.028;28.820;2023-03-26T09:11:36;11.38;;;5.62;;
42066;SDS011;27734;47.028;28.820;2023-03-26T09:17:47;11.63;;;4.90;;
42066;SDS011;27734;47.028;28.820;2023-03-26T09:26:38;10.03;;;4.47;;
42066;SDS011;27734;47.028;28.820;2023-03-26T09:32:43;6.07;;;3.80;;
42066;SDS011;27734;47.028;28.820;2023-03-26T09:35:54;7.40;;;4.03;;
42066;SDS011;27734;47.028;28.820;2023-03-26T09:38:42;5.73;;;3.70;;
42066;SDS011;27734;47.028;28.820;2023-03-26T09:41:23;8.87;;;3.90;;
42066;SDS011;27734;47.028;28.820;2023-03-26T09:47:20;7.60;;;4.00;;
42066;SDS011;27734;47.028;28.820;2023-03-26T09:50:17;7.70;;;3.97;;
42066;SDS011;27734;47.028;28.820;2023-03-26T09:53:00;7.53;;;3.63;;
42066;SDS011;27734;47.028;28.820;2023-03-26T09:55:46;8.55;;;4.05;;
42066;SDS011;27734;47.028;28.820;2023-03-26T09:58:36;7.83;;;4.03;;
42066;SDS011;27734;47.028;28.820;2023-03-26T10:01:17;9.33;;;4.10;;
42066;SDS011;27734;47.028;28.820;2023-03-26T10:03:58;8.90;;;3.80;;
42066;SDS011;27734;47.028;28.820;2023-03-26T10:06:45;9.07;;;3.90;;
42066;SDS011;27734;47.028;28.820;2023-03-26T10:09:28;5.80;;;3.45;;
42066;SDS011;27734;47.028;28.820;2023-03-26T10:12:11;5.77;;;3.73;;
42066;SDS011;27734;47.028;28.820;2023-03-26T10:14:51;7.67;;;3.60;;
42066;SDS011;27734;47.028;28.820;2023-03-26T10:17:36;7.73;;;3.60;;
42066;SDS011;27734;47.028;28.820;2023-03-26T10:23:13;5.10;;;2.80;;
42066;SDS011;27734;47.028;28.820;2023-03-26T10:25:59;5.33;;;2.70;;
42066;SDS011;27734;47.028;28.820;2023-03-26T10:28:47;4.53;;;2.90;;
42066;SDS011;27734;47.028;28.820;2023-03-26T10:31:35;4.03;;;2.40;;
42066;SDS011;27734;47.028;28.820;2023-03-26T10:37:07;5.63;;;2.10;;
42066;SDS011;27734;47.028;28.820;2023-03-26T10:39:53;2.53;;;1.90;;
42066;SDS011;27734;47.028;28.820;2023-03-26T10:42:40;2.43;;;1.83;;
42066;SDS011;27734;47.028;28.820;2023-03-26T10:45:28;4.73;;;2.70;;
42066;SDS011;27734;47.028;28.820;2023-03-26T10:48:13;5.17;;;2.65;;
42066;SDS011;27734;47.028;28.820;2023-03-26T10:50:54;4.03;;;2.30;;
42066;SDS011;27734;47.028;28.820;2023-03-26T10:53:37;6.57;;;2.50;;
42066;SDS011;27734;47.028;28.820;2023-03-26T10:56:18;5.47;;;2.13;;
42066;SDS011;27734;47.028;28.820;2023-03-26T10:58:54;3.03;;;2.00;;
42066;SDS011;27734;47.028;28.820;2023-03-26T11:01:31;3.80;;;2.10;;
42066;SDS011;27734;47.028;28.820;2023-03-26T11:04:14;4.43;;;2.27;;
42066;SDS011;27734;47.028;28.820;2023-03-26T11:06:56;2.20;;;2.00;;
42066;SDS011;27734;47.028;28.820;2023-03-26T11:09:34;5.77;;;2.20;;
42066;SDS011;27734;47.028;28.820;2023-03-26T11:12:15;3.33;;;2.40;;
42066;SDS011;27734;47.028;28.820;2023-03-26T11:14:54;5.50;;;2.50;;
42066;SDS011;27734;47.028;28.820;2023-03-26T11:17:33;4.77;;;2.20;;
42066;SDS011;27734;47.028;28.820;2023-03-26T11:20:12;4.50;;;2.23;;
42066;SDS011;27734;47.028;28.820;2023-03-26T11:22:55;2.60;;;1.70;;
42066;SDS011;27734;47.028;28.820;2023-03-26T11:25:38;3.15;;;1.95;;
42066;SDS011;27734;47.028;28.820;2023-03-26T11:28:28;6.53;;;3.03;;
42066;SDS011;27734;47.028;28.820;2023-03-26T11:31:22;5.57;;;2.50;;
42066;SDS011;27734;47.028;28.820;2023-03-26T11:34:02;6.80;;;2.33;;
42066;SDS011;27734;47.028;28.820;2023-03-26T11:36:41;4.60;;;2.50;;
42066;SDS011;27734;47.028;28.820;2023-03-26T11:39:18;2.77;;;2.03;;
42066;SDS011;27734;47.028;28.820;2023-03-26T11:41:54;3.43;;;2.30;;
42066;SDS011;27734;47.028;28.820;2023-03-26T11:44:43;4.70;;;2.73;;
42066;SDS011;27734;47.028;28.820;2023-03-26T11:47:20;4.77;;;2.57;;
42066;SDS011;27734;47.028;28.820;2023-03-26T11:49:54;7.60;;;2.70;;
42066;SDS011;27734;47.028;28.820;2023-03-26T11:52:28;4.27;;;2.57;;
42066;SDS011;27734;47.028;28.820;2023-03-26T11:54:59;5.80;;;2.90;;
42066;SDS011;27734;47.028;28.820;2023-03-26T11:57:31;5.70;;;2.80;;
42066;SDS011;27734;47.028;28.820;2023-03-26T12:00:06;6.40;;;3.10;;
42066;SDS011;27734;47.028;28.820;2023-03-26T12:02:45;6.30;;;2.90;;
42066;SDS011;27734;47.028;28.820;2023-03-26T12:05:18;5.05;;;2.50;;
42066;SDS011;27734;47.028;28.820;2023-03-26T12:07:53;4.23;;;2.40;;
42066;SDS011;27734;47.028;28.820;2023-03-26T12:10:27;4.67;;;2.83;;
42066;SDS011;27734;47.028;28.820;2023-03-26T12:13:04;5.63;;;2.70;;
42066;SDS011;27734;47.028;28.820;2023-03-26T12:15:49;4.23;;;2.63;;
42066;SDS011;27734;47.028;28.820;2023-03-26T12:18:26;4.70;;;3.07;;
42066;SDS011;27734;47.028;28.820;2023-03-26T12:21:02;6.62;;;3.00;;
42066;SDS011;27734;47.028;28.820;2023-03-26T12:26:38;7.43;;;2.70;;
42066;SDS011;27734;47.028;28.820;2023-03-26T12:29:12;4.70;;;3.20;;
42066;SDS011;27734;47.028;28.820;2023-03-26T12:31:47;6.30;;;3.23;;
42066;SDS011;27734;47.028;28.820;2023-03-26T12:34:27;6.90;;;3.57;;
42066;SDS011;27734;47.028;28.820;2023-03-26T12:37:02;6.83;;;3.37;;
42066;SDS011;27734;47.028;28.820;2023-03-26T12:39:35;5.92;;;3.42;;
42066;SDS011;27734;47.028;28.820;2023-03-26T12:42:22;6.03;;;3.22;;
42066;SDS011;27734;47.028;28.820;2023-03-26T12:44:55;5.97;;;3.23;;
42066;SDS011;27734;47.028;28.820;2023-03-26T12:47:29;7.60;;;3.50;;
42066;SDS011;27734;47.028;28.820;2023-03-26T12:50:01;4.53;;;3.20;;
42066;SDS011;27734;47.028;28.820;2023-03-26T12:55:36;4.90;;;3.05;;
42066;SDS011;27734;47.028;28.820;2023-03-26T12:58:19;5.13;;;3.07;;
42066;SDS011;27734;47.028;28.820;2023-03-26T13:01:09;5.20;;;3.10;;
42066;SDS011;27734;47.028;28.820;2023-03-26T13:04:09;8.17;;;3.00;;
42066;SDS011;27734;47.028;28.820;2023-03-26T13:06:50;7.27;;;3.30;;
42066;SDS011;27734;47.028;28.820;2023-03-26T13:09:36;4.20;;;2.97;;
42066;SDS011;27734;47.028;28.820;2023-03-26T13:12:18;5.67;;;3.00;;
42066;SDS011;27734;47.028;28.820;2023-03-26T13:17:57;3.37;;;2.73;;
42066;SDS011;27734;47.028;28.820;2023-03-26T13:20:42;4.63;;;2.80;;
42066;SDS011;27734;47.028;28.820;2023-03-26T13:23:26;3.07;;;2.47;;
42066;SDS011;27734;47.028;28.820;2023-03-26T13:26:08;7.63;;;2.93;;
42066;SDS011;27734;47.028;28.820;2023-03-26T13:28:48;2.97;;;2.43;;
42066;SDS011;27734;47.028;28.820;2023-03-26T13:31:28;5.63;;;2.30;;
42066;SDS011;27734;47.028;28.820;2023-03-26T13:34:08;4.47;;;2.40;;
42066;SDS011;27734;47.028;28.820;2023-03-26T13:36:47;3.83;;;2.30;;
42066;SDS011;27734;47.028;28.820;2023-03-26T13:39:29;3.50;;;2.50;;
42066;SDS011;27734;47.028;28.820;2023-03-26T13:42:12;5.90;;;2.60;;
42066;SDS011;27734;47.028;28.820;2023-03-26T13:45:02;4.93;;;2.20;;
42066;SDS011;27734;47.028;28.820;2023-03-26T13:47:41;2.97;;;2.27;;
42066;SDS011;27734;47.028;28.820;2023-03-26T13:50:19;3.50;;;2.30;;
42066;SDS011;27734;47.028;28.820;2023-03-26T13:52:54;4.20;;;2.10;;
42066;SDS011;27734;47.028;28.820;2023-03-26T13:55:28;3.47;;;2.13;;
42066;SDS011;27734;47.028;28.820;2023-03-26T13:58:03;4.73;;;2.17;;
42066;SDS011;27734;47.028;28.820;2023-03-26T14:00:47;3.80;;;1.90;;
42066;SDS011;27734;47.028;28.820;2023-03-26T14:03:24;2.87;;;2.30;;
42066;SDS011;27734;47.028;28.820;2023-03-26T14:06:05;4.30;;;2.27;;
42066;SDS011;27734;47.028;28.820;2023-03-26T14:08:42;4.77;;;2.07;;
42066;SDS011;27734;47.028;28.820;2023-03-26T14:11:20;4.73;;;2.53;;
42066;SDS011;27734;47.028;28.820;2023-03-26T14:14:01;4.20;;;2.30;;
42066;SDS011;27734;47.028;28.820;2023-03-26T14:16:40;4.43;;;2.07;;
42066;SDS011;27734;47.028;28.820;2023-03-26T14:19:22;3.27;;;2.20;;
42066;SDS011;27734;47.028;28.820;2023-03-26T14:22:14;3.40;;;2.50;;
42066;SDS011;27734;47.028;28.820;2023-03-26T14:24:56;4.67;;;2.60;;
42066;SDS011;27734;47.028;28.820;2023-03-26T14:27:45;4.73;;;2.30;;
42066;SDS011;27734;47.028;28.820;2023-03-26T14:30:44;4.50;;;2.40;;
42066;SDS011;27734;47.028;28.820;2023-03-26T14:33:43;4.43;;;2.10;;
42066;SDS011;27734;47.028;28.820;2023-03-26T14:36:24;3.03;;;2.20;;
42066;SDS011;27734;47.028;28.820;2023-03-26T14:39:16;3.00;;;2.03;;
42066;SDS011;27734;47.028;28.820;2023-03-26T14:42:14;2.20;;;2.00;;
42066;SDS011;27734;47.028;28.820;2023-03-26T14:47:59;4.70;;;2.00;;
42066;SDS011;27734;47.028;28.820;2023-03-26T14:50:53;2.03;;;1.70;;
42066;SDS011;27734;47.028;28.820;2023-03-26T14:53:36;3.00;;;1.93;;
42066;SDS011;27734;47.028;28.820;2023-03-26T14:59:20;5.47;;;2.10;;
42066;SDS011;27734;47.028;28.820;2023-03-26T15:02:35;4.17;;;2.30;;
42066;SDS011;27734;47.028;28.820;2023-03-26T15:09:09;7.17;;;3.03;;
42066;SDS011;27734;47.028;28.820;2023-03-26T15:11:58;3.93;;;2.37;;
42066;SDS011;27734;47.028;28.820;2023-03-26T15:14:43;3.07;;;2.30;;
42066;SDS011;27734;47.028;28.820;2023-03-26T15:17:46;5.20;;;2.43;;
42066;SDS011;27734;47.028;28.820;2023-03-26T15:20:51;5.47;;;2.70;;
42066;SDS011;27734;47.028;28.820;2023-03-26T15:36:00;4.67;;;2.50;;
42066;SDS011;27734;47.028;28.820;2023-03-26T15:39:04;10.10;;;3.13;;
42066;SDS011;27734;47.028;28.820;2023-03-26T15:42:06;4.63;;;2.93;;
42066;SDS011;27734;47.028;28.820;2023-03-26T15:44:53;3.93;;;2.30;;
42066;SDS011;27734;47.028;28.820;2023-03-26T15:47:41;5.73;;;2.47;;
42066;SDS011;27734;47.028;28.820;2023-03-26T15:50:33;3.30;;;2.37;;
42066;SDS011;27734;47.028;28.820;2023-03-26T15:53:18;5.87;;;2.87;;
42066;SDS011;27734;47.028;28.820;2023-03-26T15:58:54;8.30;;;2.65;;
42066;SDS011;27734;47.028;28.820;2023-03-26T16:01:36;4.20;;;2.43;;
42066;SDS011;27734;47.028;28.820;2023-03-26T16:04:34;3.33;;;2.50;;
42066;SDS011;27734;47.028;28.820;2023-03-26T16:07:25;4.97;;;2.70;;
42066;SDS011;27734;47.028;28.820;2023-03-26T16:10:18;4.43;;;2.63;;
42066;SDS011;27734;47.028;28.820;2023-03-26T16:22:39;7.00;;;3.37;;
42066;SDS011;27734;47.028;28.820;2023-03-26T16:25:24;5.10;;;3.50;;
42066;SDS011;27734;47.028;28.820;2023-03-26T16:34:23;5.73;;;3.17;;
42066;SDS011;27734;47.028;28.820;2023-03-26T16:36:58;8.73;;;4.00;;
42066;SDS011;27734;47.028;28.820;2023-03-26T16:39:39;8.00;;;3.67;;
42066;SDS011;27734;47.028;28.820;2023-03-26T16:42:31;11.73;;;4.60;;
42066;SDS011;27734;47.028;28.820;2023-03-26T16:45:11;10.63;;;4.67;;
42066;SDS011;27734;47.028;28.820;2023-03-26T16:47:52;13.97;;;5.10;;
42066;SDS011;27734;47.028;28.820;2023-03-26T16:50:32;11.77;;;4.50;;
42066;SDS011;27734;47.028;28.820;2023-03-26T16:53:19;12.33;;;4.70;;
42066;SDS011;27734;47.028;28.820;2023-03-26T16:58:30;12.73;;;4.63;;
42066;SDS011;27734;47.028;28.820;2023-03-26T17:01:07;9.17;;;4.37;;
42066;SDS011;27734;47.028;28.820;2023-03-26T17:03:48;7.83;;;4.03;;
42066;SDS011;27734;47.028;28.820;2023-03-26T17:06:25;11.20;;;4.73;;
42066;SDS011;27734;47.028;28.820;2023-03-26T17:09:18;11.80;;;4.70;;
42066;SDS011;27734;47.028;28.820;2023-03-26T17:12:02;10.90;;;4.57;;
42066;SDS011;27734;47.028;28.820;2023-03-26T17:14:48;12.03;;;4.73;;
42066;SDS011;27734;47.028;28.820;2023-03-26T17:17:38;13.00;;;5.17;;
42066;SDS011;27734;47.028;28.820;2023-03-26T17:20:22;12.40;;;5.80;;
42066;SDS011;27734;47.028;28.820;2023-03-26T17:23:08;13.77;;;5.63;;
42066;SDS011;27734;47.028;28.820;2023-03-26T17:25:58;13.87;;;5.73;;
42066;SDS011;27734;47.028;28.820;2023-03-26T17:29:03;17.60;;;6.93;;
42066;SDS011;27734;47.028;28.820;2023-03-26T17:31:47;16.53;;;6.60;;